sensor_id;sensor_type;location;lat;lon;timestamp;pressure;altitude;pressure_sealevel;temperature;humidity
41945;BME280;63122;52.424;13.458;2022-12-10T00:00:07;100165.06;;;-1.10;100.00
41945;BME280;63122;52.424;13.458;2022-12-10T00:03:01;100165.00;;;-1.39;100.00
41945;BME280;63122;52.424;13.458;2022-12-10T00:05:43;100166.59;;;-1.37;100.00
41945;BME280;63122;52.424;13.458;2022-12-10T00:08:37;100165.25;;;-1.13;100.00
41945;BME280;63122;52.424;13.458;2022-12-10T00:11:38;100163.34;;;-1.10;100.00
41945;BME280;63122;52.424;13.458;2022-12-10T00:14:43;100159.72;;;-1.07;100.00
41945;BME280;63122;52.424;13.458;2022-12-10T00:17:34;100161.56;;;-1.09;100.00
41945;BME280;63122;52.424;13.458;2022-12-10T00:20:08;100158.97;;;-1.24;100.00
41945;BME280;63122;52.424;13.458;2022-12-10T00:22:46;100170.34;;;-1.12;100.00
41945;BME280;63122;52.424;13.458;2022-12-10T00:25:33;100170.44;;;-1.13;100.00
41945;BME280;63122;52.424;13.458;2022-12-10T00:28:10;100164.06;;;-1.08;100.00
41945;BME280;63122;52.424;13.458;2022-12-10T00:30:47;100164.50;;;-1.16;100.00
41945;BME280;63122;52.424;13.458;2022-12-10T00:33:18;100171.75;;;-1.06;100.00
41945;BME280;63122;52.424;13.458;2022-12-10T00:36:18;100169.91;;;-1.04;100.00
41945;BME280;63122;52.424;13.458;2022-12-10T00:38:59;100169.81;;;-1.03;100.00
41945;BME280;63122;52.424;13.458;2022-12-10T00:41:37;100175.94;;;-1.04;100.00
41945;BME280;63122;52.424;13.458;2022-12-10T00:44:09;100174.81;;;-0.99;100.00
41945;BME280;63122;52.424;13.458;2022-12-10T00:46:43;100175.22;;;-1.22;100.00
41945;BME280;63122;52.424;13.458;2022-12-10T00:49:14;100177.03;;;-1.08;100.00
41945;BME280;63122;52.424;13.458;2022-12-10T00:51:47;100178.50;;;-1.04;100.00
41945;BME280;63122;52.424;13.458;2022-12-10T00:54:22;100174.94;;;-1.17;100.00
41945;BME280;63122;52.424;13.458;2022-12-10T00:56:54;100185.97;;;-1.13;100.00
41945;BME280;63122;52.424;13.458;2022-12-10T00:59:26;100180.78;;;-1.13;100.00
41945;BME280;63122;52.424;13.458;2022-12-10T01:09:30;100176.53;;;-1.14;100.00
41945;BME280;63122;52.424;13.458;2022-12-10T01:12:03;100186.56;;;-1.24;100.00
41945;BME280;63122;52.424;13.458;2022-12-10T01:14:40;100180.72;;;-1.28;100.00
41945;BME280;63122;52.424;13.458;2022-12-10T01:17:12;100187.81;;;-1.16;100.00
41945;BME280;63122;52.424;13.458;2022-12-10T01:19:45;100185.13;;;-1.14;100.00
41945;BME280;63122;52.424;13.458;2022-12-10T01:26:09;100181.16;;;-1.20;100.00
41945;BME280;63122;52.424;13.458;2022-12-10T01:28:42;100178.09;;;-1.12;100.00
41945;BME280;63122;52.424;13.458;2022-12-10T01:31:17;100172.72;;;-1.23;100.00
41945;BME280;63122;52.424;13.458;2022-12-10T01:33:50;100178.13;;;-1.28;100.00
41945;BME280;63122;52.424;13.458;2022-12-10T01:36:24;100173.00;;;-1.44;100.00
41945;BME280;63122;52.424;13.458;2022-12-10T01:39:12;100176.03;;;-1.21;100.00
41945;BME280;63122;52.424;13.458;2022-12-10T01:42:13;100172.19;;;-1.14;100.00
41945;BME280;63122;52.424;13.458;2022-12-10T01:45:09;100165.69;;;-1.21;100.00
41945;BME280;63122;52.424;13.458;2022-12-10T01:47:41;100175.56;;;-1.28;100.00
41945;BME280;63122;52.424;13.458;2022-12-10T01:50:13;100172.22;;;-1.30;100.00
41945;BME280;63122;52.424;13.458;2022-12-10T01:52:45;100171.47;;;-1.32;100.00
41945;BME280;63122;52.424;13.458;2022-12-10T01:55:40;100165.78;;;-1.23;100.00
41945;BME280;63122;52.424;13.458;2022-12-10T01:58:15;100165.53;;;-1.49;100.00
41945;BME280;63122;52.424;13.458;2022-12-10T02:00:55;100158.63;;;-1.34;100.00
41945;BME280;63122;52.424;13.458;2022-12-10T02:03:40;100173.31;;;-1.34;100.00
41945;BME280;63122;52.424;13.458;2022-12-10T02:06:25;100170.00;;;-1.36;100.00
41945;BME280;63122;52.424;13.458;2022-12-10T02:09:04;100161.06;;;-1.31;100.00
41945;BME280;63122;52.424;13.458;2022-12-10T02:11:45;100166.31;;;-1.32;100.00
41945;BME280;63122;52.424;13.458;2022-12-10T02:14:30;100168.06;;;-1.33;100.00
41945;BME280;63122;52.424;13.458;2022-12-10T02:17:08;100158.53;;;-1.32;100.00
41945;BME280;63122;52.424;13.458;2022-12-10T02:19:58;100162.97;;;-1.34;100.00
41945;BME280;63122;52.424;13.458;2022-12-10T02:22:33;100171.13;;;-1.26;100.00
41945;BME280;63122;52.424;13.458;2022-12-10T02:25:07;100169.00;;;-1.34;100.00
41945;BME280;63122;52.424;13.458;2022-12-10T02:27:47;100167.34;;;-1.51;100.00
41945;BME280;63122;52.424;13.458;2022-12-10T02:30:30;100165.97;;;-1.42;100.00
41945;BME280;63122;52.424;13.458;2022-12-10T02:33:09;100160.31;;;-1.33;100.00
41945;BME280;63122;52.424;13.458;2022-12-10T02:35:44;100160.31;;;-1.33;100.00
41945;BME280;63122;52.424;13.458;2022-12-10T02:38:20;100160.97;;;-1.45;100.00
41945;BME280;63122;52.424;13.458;2022-12-10T02:40:57;100160.84;;;-1.58;100.00
41945;BME280;63122;52.424;13.458;2022-12-10T02:43:29;100165.16;;;-1.42;100.00
41945;BME280;63122;52.424;13.458;2022-12-10T02:46:09;100165.56;;;-1.34;100.00
41945;BME280;63122;52.424;13.458;2022-12-10T02:48:41;100161.69;;;-1.27;100.00
41945;BME280;63122;52.424;13.458;2022-12-10T02:51:13;100158.78;;;-1.21;100.00
41945;BME280;63122;52.424;13.458;2022-12-10T02:53:46;100167.47;;;-1.22;100.00
41945;BME280;63122;52.424;13.458;2022-12-10T02:56:26;100162.78;;;-1.31;100.00
41945;BME280;63122;52.424;13.458;2022-12-10T02:59:07;100167.81;;;-1.44;100.00
41945;BME280;63122;52.424;13.458;2022-12-10T03:01:49;100162.25;;;-1.52;100.00
41945;BME280;63122;52.424;13.458;2022-12-10T03:04:25;100166.25;;;-1.47;100.00
41945;BME280;63122;52.424;13.458;2022-12-10T03:07:06;100176.19;;;-1.39;100.00
41945;BME280;63122;52.424;13.458;2022-12-10T03:09:48;100188.22;;;-1.38;100.00
41945;BME280;63122;52.424;13.458;2022-12-10T03:12:28;100178.66;;;-1.37;100.00
41945;BME280;63122;52.424;13.458;2022-12-10T03:15:09;100181.44;;;-1.40;100.00
41945;BME280;63122;52.424;13.458;2022-12-10T03:17:46;100180.78;;;-1.76;100.00
41945;BME280;63122;52.424;13.458;2022-12-10T03:20:22;100175.88;;;-1.65;100.00
41945;BME280;63122;52.424;13.458;2022-12-10T03:23:01;100178.47;;;-1.49;100.00
41945;BME280;63122;52.424;13.458;2022-12-10T03:25:38;100175.94;;;-1.50;100.00
41945;BME280;63122;52.424;13.458;2022-12-10T03:28:20;100177.59;;;-1.49;100.00
41945;BME280;63122;52.424;13.458;2022-12-10T03:31:01;100184.84;;;-1.40;100.00
41945;BME280;63122;52.424;13.458;2022-12-10T03:33:35;100184.53;;;-1.34;100.00
41945;BME280;63122;52.424;13.458;2022-12-10T03:36:08;100179.97;;;-1.30;100.00
41945;BME280;63122;52.424;13.458;2022-12-10T03:38:42;100182.56;;;-1.30;100.00
41945;BME280;63122;52.424;13.458;2022-12-10T03:41:13;100192.34;;;-1.35;100.00
41945;BME280;63122;52.424;13.458;2022-12-10T03:43:55;100187.28;;;-1.37;100.00
41945;BME280;63122;52.424;13.458;2022-12-10T03:46:28;100194.63;;;-1.45;100.00
41945;BME280;63122;52.424;13.458;2022-12-10T03:49:03;100188.81;;;-1.49;100.00
41945;BME280;63122;52.424;13.458;2022-12-10T03:51:33;100190.28;;;-1.45;100.00
41945;BME280;63122;52.424;13.458;2022-12-10T03:54:04;100196.97;;;-1.40;100.00
41945;BME280;63122;52.424;13.458;2022-12-10T03:56:35;100200.66;;;-1.45;100.00
41945;BME280;63122;52.424;13.458;2022-12-10T03:59:05;100196.78;;;-1.37;100.00
41945;BME280;63122;52.424;13.458;2022-12-10T04:01:37;100196.38;;;-1.46;100.00
41945;BME280;63122;52.424;13.458;2022-12-10T04:04:10;100206.06;;;-1.49;100.00
41945;BME280;63122;52.424;13.458;2022-12-10T04:06:41;100205.50;;;-1.70;100.00
41945;BME280;63122;52.424;13.458;2022-12-10T04:09:13;100212.25;;;-1.68;100.00
41945;BME280;63122;52.424;13.458;2022-12-10T04:11:44;100211.31;;;-1.83;100.00
41945;BME280;63122;52.424;13.458;2022-12-10T04:14:14;100209.16;;;-2.07;100.00
41945;BME280;63122;52.424;13.458;2022-12-10T04:16:57;100204.66;;;-1.87;100.00
41945;BME280;63122;52.424;13.458;2022-12-10T04:19:30;100210.34;;;-1.80;100.00
41945;BME280;63122;52.424;13.458;2022-12-10T04:22:02;100201.91;;;-1.84;100.00
41945;BME280;63122;52.424;13.458;2022-12-10T04:24:45;100198.84;;;-1.91;100.00
41945;BME280;63122;52.424;13.458;2022-12-10T04:27:30;100199.81;;;-1.93;100.00
41945;BME280;63122;52.424;13.458;2022-12-10T04:30:01;100205.16;;;-1.96;100.00
41945;BME280;63122;52.424;13.458;2022-12-10T04:32:33;100201.75;;;-1.81;100.00
41945;BME280;63122;52.424;13.458;2022-12-10T04:35:07;100195.06;;;-2.01;100.00
41945;BME280;63122;52.424;13.458;2022-12-10T04:37:40;100199.75;;;-1.92;100.00
41945;BME280;63122;52.424;13.458;2022-12-10T04:40:11;100205.31;;;-1.99;100.00
41945;BME280;63122;52.424;13.458;2022-12-10T04:42:42;100203.31;;;-1.94;100.00
41945;BME280;63122;52.424;13.458;2022-12-10T04:45:12;100212.66;;;-2.08;100.00
41945;BME280;63122;52.424;13.458;2022-12-10T04:47:43;100202.06;;;-2.03;100.00
41945;BME280;63122;52.424;13.458;2022-12-10T04:50:30;100208.16;;;-1.88;100.00
41945;BME280;63122;52.424;13.458;2022-12-10T04:53:03;100207.00;;;-1.82;100.00
41945;BME280;63122;52.424;13.458;2022-12-10T04:55:33;100211.44;;;-1.84;100.00
41945;BME280;63122;52.424;13.458;2022-12-10T04:58:04;100205.34;;;-1.83;100.00
41945;BME280;63122;52.424;13.458;2022-12-10T05:00:34;100205.66;;;-1.90;100.00
41945;BME280;63122;52.424;13.458;2022-12-10T05:03:05;100209.66;;;-1.84;100.00
41945;BME280;63122;52.424;13.458;2022-12-10T05:05:38;100201.31;;;-1.89;100.00
41945;BME280;63122;52.424;13.458;2022-12-10T05:08:11;100205.84;;;-1.77;100.00
41945;BME280;63122;52.424;13.458;2022-12-10T05:10:41;100209.47;;;-1.97;100.00
41945;BME280;63122;52.424;13.458;2022-12-10T05:13:12;100212.22;;;-2.00;100.00
41945;BME280;63122;52.424;13.458;2022-12-10T05:15:42;100205.50;;;-1.86;100.00
41945;BME280;63122;52.424;13.458;2022-12-10T05:18:13;100215.00;;;-1.87;100.00
41945;BME280;63122;52.424;13.458;2022-12-10T05:20:46;100211.50;;;-1.86;100.00
41945;BME280;63122;52.424;13.458;2022-12-10T05:23:17;100210.34;;;-1.80;100.00
41945;BME280;63122;52.424;13.458;2022-12-10T05:25:59;100214.19;;;-1.71;100.00
41945;BME280;63122;52.424;13.458;2022-12-10T05:28:32;100204.00;;;-1.75;100.00
41945;BME280;63122;52.424;13.458;2022-12-10T05:31:11;100214.53;;;-1.78;100.00
41945;BME280;63122;52.424;13.458;2022-12-10T05:33:42;100212.16;;;-1.82;100.00
41945;BME280;63122;52.424;13.458;2022-12-10T05:36:18;100215.50;;;-1.96;100.00
41945;BME280;63122;52.424;13.458;2022-12-10T05:38:50;100218.31;;;-2.01;100.00
41945;BME280;63122;52.424;13.458;2022-12-10T05:41:23;100222.28;;;-1.94;100.00
41945;BME280;63122;52.424;13.458;2022-12-10T05:43:55;100216.84;;;-1.89;100.00
41945;BME280;63122;52.424;13.458;2022-12-10T05:46:28;100220.34;;;-1.90;100.00
41945;BME280;63122;52.424;13.458;2022-12-10T05:49:03;100219.34;;;-1.88;100.00
41945;BME280;63122;52.424;13.458;2022-12-10T05:51:37;100220.44;;;-1.76;100.00
41945;BME280;63122;52.424;13.458;2022-12-10T05:54:09;100218.44;;;-1.86;100.00
41945;BME280;63122;52.424;13.458;2022-12-10T05:56:39;100213.09;;;-1.83;100.00
41945;BME280;63122;52.424;13.458;2022-12-10T05:59:10;100218.03;;;-1.79;100.00
41945;BME280;63122;52.424;13.458;2022-12-10T06:01:43;100215.09;;;-1.72;100.00
41945;BME280;63122;52.424;13.458;2022-12-10T06:04:14;100210.16;;;-1.61;100.00
41945;BME280;63122;52.424;13.458;2022-12-10T06:06:53;100212.34;;;-1.53;100.00
41945;BME280;63122;52.424;13.458;2022-12-10T06:09:31;100211.34;;;-1.51;100.00
41945;BME280;63122;52.424;13.458;2022-12-10T06:12:01;100207.66;;;-1.47;100.00
41945;BME280;63122;52.424;13.458;2022-12-10T06:14:32;100210.25;;;-1.47;100.00
41945;BME280;63122;52.424;13.458;2022-12-10T06:17:03;100206.16;;;-1.51;100.00
41945;BME280;63122;52.424;13.458;2022-12-10T06:19:38;100211.91;;;-1.46;100.00
41945;BME280;63122;52.424;13.458;2022-12-10T06:22:14;100211.81;;;-1.44;100.00
41945;BME280;63122;52.424;13.458;2022-12-10T06:24:57;100216.34;;;-1.48;100.00
41945;BME280;63122;52.424;13.458;2022-12-10T06:27:36;100215.25;;;-1.43;100.00
41945;BME280;63122;52.424;13.458;2022-12-10T06:30:20;100211.06;;;-1.46;100.00
41945;BME280;63122;52.424;13.458;2022-12-10T06:32:51;100215.91;;;-1.40;100.00
41945;BME280;63122;52.424;13.458;2022-12-10T06:35:21;100217.84;;;-1.43;100.00
41945;BME280;63122;52.424;13.458;2022-12-10T06:37:54;100221.91;;;-1.39;100.00
41945;BME280;63122;52.424;13.458;2022-12-10T06:40:25;100217.75;;;-1.42;100.00
41945;BME280;63122;52.424;13.458;2022-12-10T06:42:57;100223.59;;;-1.38;100.00
41945;BME280;63122;52.424;13.458;2022-12-10T06:45:30;100236.19;;;-1.32;100.00
41945;BME280;63122;52.424;13.458;2022-12-10T06:48:01;100243.31;;;-1.36;100.00
41945;BME280;63122;52.424;13.458;2022-12-10T06:50:32;100233.03;;;-1.37;100.00
41945;BME280;63122;52.424;13.458;2022-12-10T06:53:04;100238.13;;;-1.36;100.00
41945;BME280;63122;52.424;13.458;2022-12-10T06:55:36;100240.97;;;-1.40;100.00
41945;BME280;63122;52.424;13.458;2022-12-10T06:58:07;100240.59;;;-1.34;100.00
41945;BME280;63122;52.424;13.458;2022-12-10T07:00:38;100244.03;;;-1.34;100.00
41945;BME280;63122;52.424;13.458;2022-12-10T07:03:09;100251.13;;;-1.37;100.00
41945;BME280;63122;52.424;13.458;2022-12-10T07:09:27;100253.66;;;-1.36;100.00
41945;BME280;63122;52.424;13.458;2022-12-10T07:12:28;100251.06;;;-1.36;100.00
41945;BME280;63122;52.424;13.458;2022-12-10T07:14:58;100252.72;;;-1.35;100.00
41945;BME280;63122;52.424;13.458;2022-12-10T07:17:29;100257.00;;;-1.34;100.00
41945;BME280;63122;52.424;13.458;2022-12-10T07:20:00;100256.88;;;-1.32;100.00
41945;BME280;63122;52.424;13.458;2022-12-10T07:22:31;100252.56;;;-1.32;100.00
41945;BME280;63122;52.424;13.458;2022-12-10T07:25:04;100257.06;;;-1.35;100.00
41945;BME280;63122;52.424;13.458;2022-12-10T07:27:35;100259.47;;;-1.32;100.00
41945;BME280;63122;52.424;13.458;2022-12-10T07:30:08;100258.56;;;-1.31;100.00
41945;BME280;63122;52.424;13.458;2022-12-10T07:32:39;100266.59;;;-1.36;100.00
41945;BME280;63122;52.424;13.458;2022-12-10T07:35:10;100263.72;;;-1.31;100.00
41945;BME280;63122;52.424;13.458;2022-12-10T07:37:40;100272.34;;;-1.31;100.00
41945;BME280;63122;52.424;13.458;2022-12-10T07:40:21;100274.00;;;-1.29;100.00
41945;BME280;63122;52.424;13.458;2022-12-10T07:42:51;100274.94;;;-1.31;100.00
41945;BME280;63122;52.424;13.458;2022-12-10T07:45:23;100266.88;;;-1.26;100.00
41945;BME280;63122;52.424;13.458;2022-12-10T07:47:54;100279.19;;;-1.29;100.00
41945;BME280;63122;52.424;13.458;2022-12-10T07:50:24;100272.16;;;-1.27;100.00
41945;BME280;63122;52.424;13.458;2022-12-10T07:52:56;100283.19;;;-1.24;100.00
41945;BME280;63122;52.424;13.458;2022-12-10T07:55:29;100283.28;;;-1.25;100.00
41945;BME280;63122;52.424;13.458;2022-12-10T07:58:00;100278.66;;;-1.20;100.00
41945;BME280;63122;52.424;13.458;2022-12-10T08:00:30;100291.72;;;-1.22;100.00
41945;BME280;63122;52.424;13.458;2022-12-10T08:03:00;100293.38;;;-1.21;100.00
41945;BME280;63122;52.424;13.458;2022-12-10T08:05:51;100288.28;;;-1.22;100.00
41945;BME280;63122;52.424;13.458;2022-12-10T08:08:30;100292.78;;;-1.26;100.00
41945;BME280;63122;52.424;13.458;2022-12-10T08:12:13;100298.97;;;-1.28;100.00
41945;BME280;63122;52.424;13.458;2022-12-10T08:14:47;100304.72;;;-1.23;100.00
41945;BME280;63122;52.424;13.458;2022-12-10T08:17:27;100304.72;;;-1.23;100.00
41945;BME280;63122;52.424;13.458;2022-12-10T08:19:58;100303.00;;;-1.23;100.00
41945;BME280;63122;52.424;13.458;2022-12-10T08:22:28;100302.06;;;-1.22;100.00
41945;BME280;63122;52.424;13.458;2022-12-10T08:25:00;100309.09;;;-1.24;100.00
41945;BME280;63122;52.424;13.458;2022-12-10T08:27:33;100304.56;;;-1.20;100.00
41945;BME280;63122;52.424;13.458;2022-12-10T08:30:07;100303.41;;;-1.14;100.00
41945;BME280;63122;52.424;13.458;2022-12-10T08:32:38;100309.25;;;-1.11;100.00
41945;BME280;63122;52.424;13.458;2022-12-10T08:35:08;100313.19;;;-1.20;100.00
41945;BME280;63122;52.424;13.458;2022-12-10T08:37:40;100315.00;;;-1.22;100.00
41945;BME280;63122;52.424;13.458;2022-12-10T08:40:11;100308.66;;;-1.16;100.00
41945;BME280;63122;52.424;13.458;2022-12-10T08:42:44;100305.88;;;-1.13;100.00
41945;BME280;63122;52.424;13.458;2022-12-10T08:45:19;100305.41;;;-1.20;100.00
41945;BME280;63122;52.424;13.458;2022-12-10T08:47:49;100313.91;;;-1.18;100.00
41945;BME280;63122;52.424;13.458;2022-12-10T08:50:19;100315.41;;;-1.13;100.00
41945;BME280;63122;52.424;13.458;2022-12-10T08:52:49;100318.06;;;-1.15;100.00
41945;BME280;63122;52.424;13.458;2022-12-10T08:55:19;100317.16;;;-1.14;100.00
41945;BME280;63122;52.424;13.458;2022-12-10T08:57:52;100329.44;;;-1.18;100.00
41945;BME280;63122;52.424;13.458;2022-12-10T09:00:22;100325.38;;;-1.22;100.00
41945;BME280;63122;52.424;13.458;2022-12-10T09:02:52;100331.88;;;-1.14;100.00
41945;BME280;63122;52.424;13.458;2022-12-10T09:05:23;100332.84;;;-1.17;100.00
41945;BME280;63122;52.424;13.458;2022-12-10T09:07:53;100328.25;;;-1.12;100.00
41945;BME280;63122;52.424;13.458;2022-12-10T09:10:23;100330.72;;;-1.09;100.00
41945;BME280;63122;52.424;13.458;2022-12-10T09:12:56;100328.94;;;-1.08;100.00
41945;BME280;63122;52.424;13.458;2022-12-10T09:15:30;100328.75;;;-1.05;100.00
41945;BME280;63122;52.424;13.458;2022-12-10T09:17:59;100333.94;;;-1.05;100.00
41945;BME280;63122;52.424;13.458;2022-12-10T09:20:55;100332.94;;;-1.03;100.00
41945;BME280;63122;52.424;13.458;2022-12-10T09:23:25;100340.78;;;-1.04;100.00
41945;BME280;63122;52.424;13.458;2022-12-10T09:25:55;100335.44;;;-1.01;100.00
41945;BME280;63122;52.424;13.458;2022-12-10T09:28:30;100335.38;;;-0.99;100.00
41945;BME280;63122;52.424;13.458;2022-12-10T09:31:02;100332.84;;;-1.01;100.00
41945;BME280;63122;52.424;13.458;2022-12-10T09:33:43;100338.88;;;-1.00;100.00
41945;BME280;63122;52.424;13.458;2022-12-10T09:36:14;100338.78;;;-0.99;100.00
41945;BME280;63122;52.424;13.458;2022-12-10T09:38:56;100332.84;;;-1.01;100.00
41945;BME280;63122;52.424;13.458;2022-12-10T09:41:47;100338.88;;;-1.00;100.00
41945;BME280;63122;52.424;13.458;2022-12-10T09:44:32;100333.59;;;-0.99;100.00
41945;BME280;63122;52.424;13.458;2022-12-10T09:47:12;100324.34;;;-1.03;100.00
41945;BME280;63122;52.424;13.458;2022-12-10T09:49:53;100326.69;;;-0.98;100.00
41945;BME280;63122;52.424;13.458;2022-12-10T09:52:31;100326.59;;;-0.97;100.00
41945;BME280;63122;52.424;13.458;2022-12-10T09:55:10;100330.09;;;-0.98;100.00
41945;BME280;63122;52.424;13.458;2022-12-10T09:57:50;100330.94;;;-0.97;100.00
41945;BME280;63122;52.424;13.458;2022-12-10T10:00:32;100329.09;;;-0.95;100.00
41945;BME280;63122;52.424;13.458;2022-12-10T10:03:16;100323.75;;;-0.92;100.00
41945;BME280;63122;52.424;13.458;2022-12-10T10:05:48;100332.25;;;-0.90;100.00
41945;BME280;63122;52.424;13.458;2022-12-10T10:08:26;100319.97;;;-0.87;100.00
41945;BME280;63122;52.424;13.458;2022-12-10T10:10:58;100321.06;;;-0.91;100.00
41945;BME280;63122;52.424;13.458;2022-12-10T10:13:34;100319.88;;;-0.85;100.00
41945;BME280;63122;52.424;13.458;2022-12-10T10:16:22;100324.31;;;-0.87;100.00
41945;BME280;63122;52.424;13.458;2022-12-10T10:18:59;100325.22;;;-0.88;100.00
41945;BME280;63122;52.424;13.458;2022-12-10T10:21:35;100326.81;;;-0.85;100.00
41945;BME280;63122;52.424;13.458;2022-12-10T10:24:13;100331.16;;;-0.86;100.00
41945;BME280;63122;52.424;13.458;2022-12-10T10:26:45;100325.16;;;-0.87;100.00
41945;BME280;63122;52.424;13.458;2022-12-10T10:29:17;100332.59;;;-0.96;100.00
41945;BME280;63122;52.424;13.458;2022-12-10T10:32:15;100327.94;;;-0.90;100.00
41945;BME280;63122;52.424;13.458;2022-12-10T10:34:52;100324.31;;;-0.87;100.00
41945;BME280;63122;52.424;13.458;2022-12-10T10:37:47;100329.25;;;-0.82;100.00
41945;BME280;63122;52.424;13.458;2022-12-10T10:40:43;100323.13;;;-0.81;100.00
41945;BME280;63122;52.424;13.458;2022-12-10T10:43:31;100316.88;;;-0.77;100.00
41945;BME280;63122;52.424;13.458;2022-12-10T10:46:11;100318.34;;;-0.73;100.00
41945;BME280;63122;52.424;13.458;2022-12-10T10:49:23;100309.66;;;-0.72;100.00
41945;BME280;63122;52.424;13.458;2022-12-10T10:51:58;100312.25;;;-0.72;100.00
41945;BME280;63122;52.424;13.458;2022-12-10T10:54:37;100305.22;;;-0.70;100.00
41945;BME280;63122;52.424;13.458;2022-12-10T10:57:12;100300.72;;;-0.66;100.00
41945;BME280;63122;52.424;13.458;2022-12-10T10:59:56;100303.47;;;-0.69;100.00
41945;BME280;63122;52.424;13.458;2022-12-10T11:02:37;100306.00;;;-0.68;100.00
41945;BME280;63122;52.424;13.458;2022-12-10T11:05:21;100298.97;;;-0.66;100.00
41945;BME280;63122;52.424;13.458;2022-12-10T11:07:59;100301.56;;;-0.66;100.00
41945;BME280;63122;52.424;13.458;2022-12-10T11:10:32;100303.13;;;-0.63;100.00
41945;BME280;63122;52.424;13.458;2022-12-10T11:13:07;100302.38;;;-0.65;100.00
41945;BME280;63122;52.424;13.458;2022-12-10T11:15:39;100300.44;;;-0.62;100.00
41945;BME280;63122;52.424;13.458;2022-12-10T11:18:24;100295.09;;;-0.59;100.00
41945;BME280;63122;52.424;13.458;2022-12-10T11:21:05;100301.84;;;-0.56;100.00
41945;BME280;63122;52.424;13.458;2022-12-10T11:23:38;100295.09;;;-0.59;100.00
41945;BME280;63122;52.424;13.458;2022-12-10T11:26:26;100292.41;;;-0.57;100.00
41945;BME280;63122;52.424;13.458;2022-12-10T11:29:36;100293.44;;;-0.60;100.00
41945;BME280;63122;52.424;13.458;2022-12-10T11:32:30;100293.31;;;-0.58;100.00
41945;BME280;63122;52.424;13.458;2022-12-10T11:35:16;100284.63;;;-0.57;100.00
41945;BME280;63122;52.424;13.458;2022-12-10T11:38:09;100281.22;;;-0.57;100.00
41945;BME280;63122;52.424;13.458;2022-12-10T11:41:25;100290.72;;;-0.58;100.00
41945;BME280;63122;52.424;13.458;2022-12-10T11:44:30;100288.13;;;-0.58;100.00
41945;BME280;63122;52.424;13.458;2022-12-10T11:47:31;100281.22;;;-0.57;100.00
41945;BME280;63122;52.424;13.458;2022-12-10T11:50:27;100282.88;;;-0.56;100.00
41945;BME280;63122;52.424;13.458;2022-12-10T11:53:32;100283.53;;;-0.53;100.00
41945;BME280;63122;52.424;13.458;2022-12-10T11:56:24;100281.88;;;-0.54;100.00
41945;BME280;63122;52.424;13.458;2022-12-10T11:59:26;100290.41;;;-0.52;100.00
41945;BME280;63122;52.424;13.458;2022-12-10T12:05:28;100298.00;;;-0.49;100.00
41945;BME280;63122;52.424;13.458;2022-12-10T12:08:09;100298.72;;;-0.47;100.00
41945;BME280;63122;52.424;13.458;2022-12-10T12:11:01;100293.72;;;-0.50;100.00
41945;BME280;63122;52.424;13.458;2022-12-10T12:13:48;100290.22;;;-0.49;100.00
41945;BME280;63122;52.424;13.458;2022-12-10T12:16:27;100299.56;;;-0.46;100.00
41945;BME280;63122;52.424;13.458;2022-12-10T12:19:04;100300.41;;;-0.46;100.00
41945;BME280;63122;52.424;13.458;2022-12-10T12:21:36;100296.88;;;-0.45;100.00
41945;BME280;63122;52.424;13.458;2022-12-10T12:24:13;100307.44;;;-0.48;99.18
41945;BME280;63122;52.424;13.458;2022-12-10T12:26:56;100309.00;;;-0.45;100.00
41945;BME280;63122;52.424;13.458;2022-12-10T12:29:31;100303.72;;;-0.44;100.00
41945;BME280;63122;52.424;13.458;2022-12-10T12:32:21;100304.66;;;-0.45;100.00
41945;BME280;63122;52.424;13.458;2022-12-10T12:34:59;100307.31;;;-0.46;100.00
41945;BME280;63122;52.424;13.458;2022-12-10T12:37:42;100302.06;;;-0.45;100.00
41945;BME280;63122;52.424;13.458;2022-12-10T12:40:30;100307.25;;;-0.45;100.00
41945;BME280;63122;52.424;13.458;2022-12-10T12:43:10;100303.91;;;-0.47;100.00
41945;BME280;63122;52.424;13.458;2022-12-10T12:45:46;100309.09;;;-0.47;100.00
41945;BME280;63122;52.424;13.458;2022-12-10T12:48:23;100309.09;;;-0.47;100.00
41945;BME280;63122;52.424;13.458;2022-12-10T12:51:00;100310.03;;;-0.48;100.00
41945;BME280;63122;52.424;13.458;2022-12-10T12:53:31;100306.69;;;-0.50;100.00
41945;BME280;63122;52.424;13.458;2022-12-10T12:56:20;100307.50;;;-0.49;100.00
41945;BME280;63122;52.424;13.458;2022-12-10T12:59:08;100306.59;;;-0.48;98.00
41945;BME280;63122;52.424;13.458;2022-12-10T13:01:55;100315.09;;;-0.46;100.00
41945;BME280;63122;52.424;13.458;2022-12-10T13:04:29;100310.75;;;-0.46;100.00
41945;BME280;63122;52.424;13.458;2022-12-10T13:10:22;100316.56;;;-0.56;99.39
41945;BME280;63122;52.424;13.458;2022-12-10T13:13:21;100317.38;;;-0.56;100.00
41945;BME280;63122;52.424;13.458;2022-12-10T13:15:55;100314.28;;;-0.47;100.00
41945;BME280;63122;52.424;13.458;2022-12-10T13:18:37;100322.63;;;-0.41;100.00
41945;BME280;63122;52.424;13.458;2022-12-10T13:21:26;100327.88;;;-0.43;100.00
41945;BME280;63122;52.424;13.458;2022-12-10T13:24:09;100330.75;;;-0.48;100.00
41945;BME280;63122;52.424;13.458;2022-12-10T13:29:28;100337.31;;;-0.42;100.00
41945;BME280;63122;52.424;13.458;2022-12-10T13:32:04;100339.91;;;-0.42;100.00
41945;BME280;63122;52.424;13.458;2022-12-10T13:34:46;100338.16;;;-0.41;100.00
41945;BME280;63122;52.424;13.458;2022-12-10T13:37:28;100335.59;;;-0.41;100.00
41945;BME280;63122;52.424;13.458;2022-12-10T13:40:14;100338.84;;;-0.38;100.00
41945;BME280;63122;52.424;13.458;2022-12-10T13:42:45;100339.91;;;-0.42;100.00
41945;BME280;63122;52.424;13.458;2022-12-10T13:45:35;100338.16;;;-0.41;100.00
41945;BME280;63122;52.424;13.458;2022-12-10T13:48:32;100339.03;;;-0.41;100.00